sensor_id;sensor_type;location;lat;lon;timestamp;temperature;humidity
74171;DHT22;62526;50.948;6.590;2023-01-31T00:00:08;5.10;99.90
74171;DHT22;62526;50.948;6.590;2023-01-31T00:02:35;5.10;99.90
74171;DHT22;62526;50.948;6.590;2023-01-31T00:05:02;5.10;99.90
74171;DHT22;62526;50.948;6.590;2023-01-31T00:07:28;5.10;99.90
74171;DHT22;62526;50.948;6.590;2023-01-31T00:09:55;5.10;99.90
74171;DHT22;62526;50.948;6.590;2023-01-31T00:12:22;5.10;99.90
74171;DHT22;62526;50.948;6.590;2023-01-31T00:14:48;5.30;99.90
74171;DHT22;62526;50.948;6.590;2023-01-31T00:17:15;5.30;99.90
74171;DHT22;62526;50.948;6.590;2023-01-31T00:19:42;5.40;99.90
74171;DHT22;62526;50.948;6.590;2023-01-31T00:22:10;5.40;99.90
74171;DHT22;62526;50.948;6.590;2023-01-31T00:24:37;5.30;99.90
74171;DHT22;62526;50.948;6.590;2023-01-31T00:27:03;5.40;99.90
74171;DHT22;62526;50.948;6.590;2023-01-31T00:29:31;5.30;99.90
74171;DHT22;62526;50.948;6.590;2023-01-31T00:31:57;5.20;99.90
74171;DHT22;62526;50.948;6.590;2023-01-31T00:34:25;5.20;99.90
74171;DHT22;62526;50.948;6.590;2023-01-31T00:36:52;5.10;99.90
74171;DHT22;62526;50.948;6.590;2023-01-31T00:39:19;5.10;99.90
74171;DHT22;62526;50.948;6.590;2023-01-31T00:41:45;5.10;99.90
74171;DHT22;62526;50.948;6.590;2023-01-31T00:44:12;5.00;99.90
74171;DHT22;62526;50.948;6.590;2023-01-31T00:46:39;5.00;99.90
74171;DHT22;62526;50.948;6.590;2023-01-31T00:49:05;4.90;99.90
74171;DHT22;62526;50.948;6.590;2023-01-31T00:51:32;4.90;99.90
74171;DHT22;62526;50.948;6.590;2023-01-31T00:53:59;4.90;99.90
74171;DHT22;62526;50.948;6.590;2023-01-31T00:56:25;4.80;99.90
74171;DHT22;62526;50.948;6.590;2023-01-31T00:58:53;4.80;99.90
74171;DHT22;62526;50.948;6.590;2023-01-31T01:01:25;4.70;99.90
74171;DHT22;62526;50.948;6.590;2023-01-31T01:03:50;5.20;99.90
74171;DHT22;62526;50.948;6.590;2023-01-31T01:06:19;4.50;99.90
74171;DHT22;62526;50.948;6.590;2023-01-31T01:08:46;4.50;99.90
74171;DHT22;62526;50.948;6.590;2023-01-31T01:11:15;4.50;99.90
74171;DHT22;62526;50.948;6.590;2023-01-31T01:13:40;4.50;99.90
74171;DHT22;62526;50.948;6.590;2023-01-31T01:16:07;4.50;99.90
74171;DHT22;62526;50.948;6.590;2023-01-31T01:18:33;4.50;99.90
74171;DHT22;62526;50.948;6.590;2023-01-31T01:21:04;4.60;99.90
74171;DHT22;62526;50.948;6.590;2023-01-31T01:23:30;4.60;99.90
74171;DHT22;62526;50.948;6.590;2023-01-31T01:25:56;4.60;99.90
74171;DHT22;62526;50.948;6.590;2023-01-31T01:28:23;4.70;99.90
74171;DHT22;62526;50.948;6.590;2023-01-31T01:30:50;4.70;99.90
74171;DHT22;62526;50.948;6.590;2023-01-31T01:33:18;4.80;99.90
74171;DHT22;62526;50.948;6.590;2023-01-31T01:35:44;4.90;99.90
74171;DHT22;62526;50.948;6.590;2023-01-31T01:38:11;4.90;99.90
74171;DHT22;62526;50.948;6.590;2023-01-31T01:40:38;5.00;99.90
74171;DHT22;62526;50.948;6.590;2023-01-31T01:43:04;5.10;99.90
74171;DHT22;62526;50.948;6.590;2023-01-31T01:45:31;5.10;99.90
74171;DHT22;62526;50.948;6.590;2023-01-31T01:47:58;5.20;99.90
74171;DHT22;62526;50.948;6.590;2023-01-31T01:50:26;5.20;99.90
74171;DHT22;62526;50.948;6.590;2023-01-31T01:52:53;5.20;99.90
74171;DHT22;62526;50.948;6.590;2023-01-31T01:57:55;5.20;99.90
74171;DHT22;62526;50.948;6.590;2023-01-31T02:00:22;5.20;99.90
74171;DHT22;62526;50.948;6.590;2023-01-31T02:02:48;5.20;99.90
74171;DHT22;62526;50.948;6.590;2023-01-31T02:05:19;5.20;99.90
74171;DHT22;62526;50.948;6.590;2023-01-31T02:07:42;5.20;99.90
74171;DHT22;62526;50.948;6.590;2023-01-31T02:10:13;5.10;99.90
74171;DHT22;62526;50.948;6.590;2023-01-31T02:12:37;5.20;99.90
74171;DHT22;62526;50.948;6.590;2023-01-31T02:15:04;5.20;99.90
74171;DHT22;62526;50.948;6.590;2023-01-31T02:17:31;5.20;99.90
74171;DHT22;62526;50.948;6.590;2023-01-31T02:20:24;5.20;99.90
74171;DHT22;62526;50.948;6.590;2023-01-31T02:23:01;5.20;99.90
74171;DHT22;62526;50.948;6.590;2023-01-31T02:28:21;5.10;99.90
74171;DHT22;62526;50.948;6.590;2023-01-31T02:33:35;5.10;99.90
74171;DHT22;62526;50.948;6.590;2023-01-31T02:36:13;5.00;99.90
74171;DHT22;62526;50.948;6.590;2023-01-31T02:38:54;5.00;99.90
74171;DHT22;62526;50.948;6.590;2023-01-31T02:41:49;4.90;99.90
74171;DHT22;62526;50.948;6.590;2023-01-31T02:44:06;4.80;99.90
74171;DHT22;62526;50.948;6.590;2023-01-31T02:46:44;4.80;99.90
74171;DHT22;62526;50.948;6.590;2023-01-31T02:49:14;4.70;99.90
74171;DHT22;62526;50.948;6.590;2023-01-31T02:51:38;4.70;99.90
74171;DHT22;62526;50.948;6.590;2023-01-31T02:54:06;4.60;99.90
74171;DHT22;62526;50.948;6.590;2023-01-31T02:56:32;4.50;99.90
74171;DHT22;62526;50.948;6.590;2023-01-31T02:59:02;4.50;99.90
74171;DHT22;62526;50.948;6.590;2023-01-31T03:01:28;4.40;99.90
74171;DHT22;62526;50.948;6.590;2023-01-31T03:03:57;4.40;99.90
74171;DHT22;62526;50.948;6.590;2023-01-31T03:06:45;4.30;99.90
74171;DHT22;62526;50.948;6.590;2023-01-31T03:09:12;4.20;99.90
74171;DHT22;62526;50.948;6.590;2023-01-31T03:14:34;4.10;99.90
74171;DHT22;62526;50.948;6.590;2023-01-31T03:17:37;4.10;99.90
74171;DHT22;62526;50.948;6.590;2023-01-31T03:20:04;4.10;99.90
74171;DHT22;62526;50.948;6.590;2023-01-31T03:22:30;4.00;99.90
74171;DHT22;62526;50.948;6.590;2023-01-31T03:24:55;4.00;99.90
74171;DHT22;62526;50.948;6.590;2023-01-31T03:27:22;4.00;99.90
74171;DHT22;62526;50.948;6.590;2023-01-31T03:29:49;4.00;99.90
74171;DHT22;62526;50.948;6.590;2023-01-31T03:32:19;3.90;99.90
74171;DHT22;62526;50.948;6.590;2023-01-31T03:34:44;4.00;99.90
74171;DHT22;62526;50.948;6.590;2023-01-31T03:37:31;4.00;99.90
74171;DHT22;62526;50.948;6.590;2023-01-31T03:40:02;4.00;99.90
74171;DHT22;62526;50.948;6.590;2023-01-31T03:42:29;4.10;99.90
74171;DHT22;62526;50.948;6.590;2023-01-31T03:45:27;4.20;99.90
74171;DHT22;62526;50.948;6.590;2023-01-31T03:47:38;4.20;99.90
74171;DHT22;62526;50.948;6.590;2023-01-31T03:50:06;4.30;99.90
74171;DHT22;62526;50.948;6.590;2023-01-31T03:52:35;4.20;99.90
74171;DHT22;62526;50.948;6.590;2023-01-31T03:55:04;4.20;99.90
74171;DHT22;62526;50.948;6.590;2023-01-31T03:57:30;4.20;99.90
74171;DHT22;62526;50.948;6.590;2023-01-31T03:59:57;4.20;99.90
74171;DHT22;62526;50.948;6.590;2023-01-31T04:02:24;4.10;99.90
74171;DHT22;62526;50.948;6.590;2023-01-31T04:04:52;4.10;99.90
74171;DHT22;62526;50.948;6.590;2023-01-31T04:07:16;4.10;99.90
74171;DHT22;62526;50.948;6.590;2023-01-31T04:09:44;4.10;99.90
74171;DHT22;62526;50.948;6.590;2023-01-31T04:12:11;4.10;99.90
74171;DHT22;62526;50.948;6.590;2023-01-31T04:14:38;4.10;99.90
74171;DHT22;62526;50.948;6.590;2023-01-31T04:17:05;4.00;99.90
74171;DHT22;62526;50.948;6.590;2023-01-31T04:19:32;4.10;99.90
74171;DHT22;62526;50.948;6.590;2023-01-31T04:21:58;4.10;99.90
74171;DHT22;62526;50.948;6.590;2023-01-31T04:24:25;4.10;99.90
74171;DHT22;62526;50.948;6.590;2023-01-31T04:26:51;4.20;99.90
74171;DHT22;62526;50.948;6.590;2023-01-31T04:29:18;4.20;99.90
74171;DHT22;62526;50.948;6.590;2023-01-31T04:31:45;4.30;99.90
74171;DHT22;62526;50.948;6.590;2023-01-31T04:34:11;4.30;99.90
74171;DHT22;62526;50.948;6.590;2023-01-31T04:36:38;4.30;99.90
74171;DHT22;62526;50.948;6.590;2023-01-31T04:39:04;4.40;99.90
74171;DHT22;62526;50.948;6.590;2023-01-31T04:41:31;4.40;99.90
74171;DHT22;62526;50.948;6.590;2023-01-31T04:43:59;4.30;99.90
74171;DHT22;62526;50.948;6.590;2023-01-31T04:46:27;4.40;99.90
74171;DHT22;62526;50.948;6.590;2023-01-31T04:48:54;4.40;99.90
74171;DHT22;62526;50.948;6.590;2023-01-31T04:51:20;4.40;99.90
74171;DHT22;62526;50.948;6.590;2023-01-31T04:53:47;4.40;99.90
74171;DHT22;62526;50.948;6.590;2023-01-31T04:56:14;4.30;99.90
74171;DHT22;62526;50.948;6.590;2023-01-31T04:58:41;4.30;99.90
74171;DHT22;62526;50.948;6.590;2023-01-31T05:01:08;4.30;99.90
74171;DHT22;62526;50.948;6.590;2023-01-31T05:03:35;4.30;99.90
74171;DHT22;62526;50.948;6.590;2023-01-31T05:06:01;4.30;99.90
74171;DHT22;62526;50.948;6.590;2023-01-31T05:08:29;4.30;99.90
74171;DHT22;62526;50.948;6.590;2023-01-31T05:10:58;4.30;99.90
74171;DHT22;62526;50.948;6.590;2023-01-31T05:13:24;4.30;99.90
74171;DHT22;62526;50.948;6.590;2023-01-31T05:15:51;4.40;99.90
74171;DHT22;62526;50.948;6.590;2023-01-31T05:18:18;4.30;99.90
74171;DHT22;62526;50.948;6.590;2023-01-31T05:20:46;4.40;99.90
74171;DHT22;62526;50.948;6.590;2023-01-31T05:23:12;4.40;99.90
74171;DHT22;62526;50.948;6.590;2023-01-31T05:25:40;4.50;99.90
74171;DHT22;62526;50.948;6.590;2023-01-31T05:28:06;4.50;99.90
74171;DHT22;62526;50.948;6.590;2023-01-31T05:30:33;4.50;99.90
74171;DHT22;62526;50.948;6.590;2023-01-31T05:33:00;4.50;99.90
74171;DHT22;62526;50.948;6.590;2023-01-31T05:35:27;4.50;99.90
74171;DHT22;62526;50.948;6.590;2023-01-31T05:37:54;4.50;99.90
74171;DHT22;62526;50.948;6.590;2023-01-31T05:40:20;4.40;99.90
74171;DHT22;62526;50.948;6.590;2023-01-31T05:42:54;4.40;99.90
74171;DHT22;62526;50.948;6.590;2023-01-31T05:45:21;4.40;99.90
74171;DHT22;62526;50.948;6.590;2023-01-31T05:47:48;4.30;99.90
74171;DHT22;62526;50.948;6.590;2023-01-31T05:50:14;4.30;99.90
74171;DHT22;62526;50.948;6.590;2023-01-31T05:52:41;4.30;99.90
74171;DHT22;62526;50.948;6.590;2023-01-31T05:55:09;4.30;99.90
74171;DHT22;62526;50.948;6.590;2023-01-31T05:57:36;4.30;99.90
74171;DHT22;62526;50.948;6.590;2023-01-31T06:00:03;4.30;99.90
74171;DHT22;62526;50.948;6.590;2023-01-31T06:02:30;4.30;99.90
74171;DHT22;62526;50.948;6.590;2023-01-31T06:04:58;4.30;99.90
74171;DHT22;62526;50.948;6.590;2023-01-31T06:07:24;4.30;99.90
74171;DHT22;62526;50.948;6.590;2023-01-31T06:09:51;4.30;99.90
74171;DHT22;62526;50.948;6.590;2023-01-31T06:12:17;4.30;99.90
74171;DHT22;62526;50.948;6.590;2023-01-31T06:14:44;4.30;99.90
74171;DHT22;62526;50.948;6.590;2023-01-31T06:17:11;4.30;99.90
74171;DHT22;62526;50.948;6.590;2023-01-31T06:19:38;4.30;99.90
74171;DHT22;62526;50.948;6.590;2023-01-31T06:22:06;4.30;99.90
74171;DHT22;62526;50.948;6.590;2023-01-31T06:24:32;4.40;99.90
74171;DHT22;62526;50.948;6.590;2023-01-31T06:26:59;4.40;99.90
74171;DHT22;62526;50.948;6.590;2023-01-31T06:29:26;4.40;99.90
74171;DHT22;62526;50.948;6.590;2023-01-31T06:31:54;4.50;99.90
74171;DHT22;62526;50.948;6.590;2023-01-31T06:34:22;4.60;99.90
74171;DHT22;62526;50.948;6.590;2023-01-31T06:36:48;4.60;99.90
74171;DHT22;62526;50.948;6.590;2023-01-31T06:39:16;4.60;99.90
74171;DHT22;62526;50.948;6.590;2023-01-31T06:41:42;4.60;99.90
74171;DHT22;62526;50.948;6.590;2023-01-31T06:44:09;4.60;99.90
74171;DHT22;62526;50.948;6.590;2023-01-31T06:46:36;4.70;99.90
74171;DHT22;62526;50.948;6.590;2023-01-31T06:49:02;4.70;99.90
74171;DHT22;62526;50.948;6.590;2023-01-31T06:51:33;4.70;99.90
74171;DHT22;62526;50.948;6.590;2023-01-31T06:54:01;4.80;99.90
74171;DHT22;62526;50.948;6.590;2023-01-31T06:56:27;4.80;99.90
74171;DHT22;62526;50.948;6.590;2023-01-31T06:58:54;4.80;99.90
74171;DHT22;62526;50.948;6.590;2023-01-31T07:01:21;4.70;99.90
74171;DHT22;62526;50.948;6.590;2023-01-31T07:03:49;4.70;99.90
74171;DHT22;62526;50.948;6.590;2023-01-31T07:06:15;4.70;99.90
74171;DHT22;62526;50.948;6.590;2023-01-31T07:08:42;4.60;99.90
74171;DHT22;62526;50.948;6.590;2023-01-31T07:11:09;4.60;99.90
74171;DHT22;62526;50.948;6.590;2023-01-31T07:13:36;4.70;99.90
74171;DHT22;62526;50.948;6.590;2023-01-31T07:16:02;4.70;99.90
74171;DHT22;62526;50.948;6.590;2023-01-31T07:18:29;4.80;99.90
74171;DHT22;62526;50.948;6.590;2023-01-31T07:20:56;4.80;99.90
74171;DHT22;62526;50.948;6.590;2023-01-31T07:23:22;4.80;99.90
74171;DHT22;62526;50.948;6.590;2023-01-31T07:25:49;4.90;99.90
74171;DHT22;62526;50.948;6.590;2023-01-31T07:28:16;5.00;99.90
74171;DHT22;62526;50.948;6.590;2023-01-31T07:30:42;5.00;99.90
74171;DHT22;62526;50.948;6.590;2023-01-31T07:33:10;5.00;99.90
74171;DHT22;62526;50.948;6.590;2023-01-31T07:35:38;5.10;99.90
74171;DHT22;62526;50.948;6.590;2023-01-31T07:38:04;5.10;99.90
74171;DHT22;62526;50.948;6.590;2023-01-31T07:40:31;5.10;99.90
74171;DHT22;62526;50.948;6.590;2023-01-31T07:42:58;5.20;99.90
74171;DHT22;62526;50.948;6.590;2023-01-31T07:45:24;5.20;99.90
74171;DHT22;62526;50.948;6.590;2023-01-31T07:47:51;5.20;99.90
74171;DHT22;62526;50.948;6.590;2023-01-31T07:50:20;5.30;99.90
74171;DHT22;62526;50.948;6.590;2023-01-31T07:52:48;5.30;99.90
74171;DHT22;62526;50.948;6.590;2023-01-31T07:55:15;5.20;99.90
74171;DHT22;62526;50.948;6.590;2023-01-31T07:57:42;5.30;99.90
74171;DHT22;62526;50.948;6.590;2023-01-31T08:00:09;5.30;99.90
74171;DHT22;62526;50.948;6.590;2023-01-31T08:02:35;5.30;99.90
74171;DHT22;62526;50.948;6.590;2023-01-31T08:05:08;5.20;99.90
74171;DHT22;62526;50.948;6.590;2023-01-31T08:07:35;5.30;99.90
74171;DHT22;62526;50.948;6.590;2023-01-31T08:10:02;5.30;99.90
74171;DHT22;62526;50.948;6.590;2023-01-31T08:12:40;5.30;99.90
74171;DHT22;62526;50.948;6.590;2023-01-31T08:15:07;5.30;99.90
74171;DHT22;62526;50.948;6.590;2023-01-31T08:17:34;5.30;99.90
74171;DHT22;62526;50.948;6.590;2023-01-31T08:20:03;5.30;99.90
74171;DHT22;62526;50.948;6.590;2023-01-31T08:22:29;5.40;99.90
74171;DHT22;62526;50.948;6.590;2023-01-31T08:24:56;5.40;99.90
74171;DHT22;62526;50.948;6.590;2023-01-31T08:27:24;5.50;99.90
74171;DHT22;62526;50.948;6.590;2023-01-31T08:29:51;5.50;99.90
74171;DHT22;62526;50.948;6.590;2023-01-31T08:32:17;5.50;99.90
74171;DHT22;62526;50.948;6.590;2023-01-31T08:34:44;5.60;99.90
74171;DHT22;62526;50.948;6.590;2023-01-31T08:37:10;5.60;99.90
74171;DHT22;62526;50.948;6.590;2023-01-31T08:39:37;5.70;99.90
74171;DHT22;62526;50.948;6.590;2023-01-31T08:42:04;5.70;99.90
74171;DHT22;62526;50.948;6.590;2023-01-31T08:44:30;5.70;99.90
74171;DHT22;62526;50.948;6.590;2023-01-31T08:46:58;5.70;99.90
74171;DHT22;62526;50.948;6.590;2023-01-31T08:49:26;5.70;99.90
74171;DHT22;62526;50.948;6.590;2023-01-31T08:52:00;5.70;99.90
74171;DHT22;62526;50.948;6.590;2023-01-31T08:54:28;5.70;99.90
74171;DHT22;62526;50.948;6.590;2023-01-31T08:56:58;5.90;99.90
74171;DHT22;62526;50.948;6.590;2023-01-31T08:59:26;5.90;99.90
74171;DHT22;62526;50.948;6.590;2023-01-31T09:01:53;6.00;99.90
74171;DHT22;62526;50.948;6.590;2023-01-31T09:04:19;6.10;99.90
74171;DHT22;62526;50.948;6.590;2023-01-31T09:06:46;6.00;99.90
74171;DHT22;62526;50.948;6.590;2023-01-31T09:09:13;6.00;99.90
74171;DHT22;62526;50.948;6.590;2023-01-31T09:11:40;6.10;99.90
74171;DHT22;62526;50.948;6.590;2023-01-31T09:14:07;6.00;99.90
74171;DHT22;62526;50.948;6.590;2023-01-31T09:16:34;6.00;99.90
74171;DHT22;62526;50.948;6.590;2023-01-31T09:19:01;6.10;99.90
74171;DHT22;62526;50.948;6.590;2023-01-31T09:21:27;6.20;99.90
74171;DHT22;62526;50.948;6.590;2023-01-31T09:23:56;6.30;99.90
74171;DHT22;62526;50.948;6.590;2023-01-31T09:26:22;6.20;99.90
74171;DHT22;62526;50.948;6.590;2023-01-31T09:28:48;6.30;99.90
74171;DHT22;62526;50.948;6.590;2023-01-31T09:31:16;6.30;99.90
74171;DHT22;62526;50.948;6.590;2023-01-31T09:33:42;6.30;99.90
74171;DHT22;62526;50.948;6.590;2023-01-31T09:36:11;6.40;99.90
74171;DHT22;62526;50.948;6.590;2023-01-31T09:38:36;6.40;99.90
74171;DHT22;62526;50.948;6.590;2023-01-31T09:43:48;6.70;99.90
74171;DHT22;62526;50.948;6.590;2023-01-31T09:46:15;6.50;99.90
74171;DHT22;62526;50.948;6.590;2023-01-31T09:48:41;6.50;99.90
74171;DHT22;62526;50.948;6.590;2023-01-31T09:51:09;6.50;99.90
74171;DHT22;62526;50.948;6.590;2023-01-31T09:53:36;6.50;99.90
74171;DHT22;62526;50.948;6.590;2023-01-31T09:56:19;6.60;99.90
74171;DHT22;62526;50.948;6.590;2023-01-31T09:58:55;6.60;99.90
74171;DHT22;62526;50.948;6.590;2023-01-31T10:04:21;6.60;99.90
74171;DHT22;62526;50.948;6.590;2023-01-31T10:06:48;6.60;99.90
74171;DHT22;62526;50.948;6.590;2023-01-31T10:09:18;6.70;99.90
74171;DHT22;62526;50.948;6.590;2023-01-31T10:11:46;6.70;99.90
74171;DHT22;62526;50.948;6.590;2023-01-31T10:14:30;6.80;99.90
74171;DHT22;62526;50.948;6.590;2023-01-31T10:17:02;6.70;99.90
74171;DHT22;62526;50.948;6.590;2023-01-31T10:19:30;6.70;99.90
74171;DHT22;62526;50.948;6.590;2023-01-31T10:21:57;6.80;99.90
74171;DHT22;62526;50.948;6.590;2023-01-31T10:24:58;6.80;99.90
74171;DHT22;62526;50.948;6.590;2023-01-31T10:27:14;6.90;99.90
74171;DHT22;62526;50.948;6.590;2023-01-31T10:29:41;7.00;99.90
74171;DHT22;62526;50.948;6.590;2023-01-31T10:32:14;7.00;99.90
74171;DHT22;62526;50.948;6.590;2023-01-31T10:34:55;6.90;99.90
74171;DHT22;62526;50.948;6.590;2023-01-31T10:37:44;6.90;99.90
74171;DHT22;62526;50.948;6.590;2023-01-31T10:40:15;7.00;99.90
74171;DHT22;62526;50.948;6.590;2023-01-31T10:42:39;7.00;99.90
74171;DHT22;62526;50.948;6.590;2023-01-31T10:45:18;7.00;99.90
74171;DHT22;62526;50.948;6.590;2023-01-31T10:47:50;6.90;99.90
74171;DHT22;62526;50.948;6.590;2023-01-31T10:50:17;6.90;99.90
74171;DHT22;62526;50.948;6.590;2023-01-31T10:52:47;6.90;99.90
74171;DHT22;62526;50.948;6.590;2023-01-31T10:55:27;6.80;99.90
74171;DHT22;62526;50.948;6.590;2023-01-31T10:57:51;6.80;99.90
74171;DHT22;62526;50.948;6.590;2023-01-31T11:00:21;6.90;99.90
74171;DHT22;62526;50.948;6.590;2023-01-31T11:02:46;6.90;99.90
74171;DHT22;62526;50.948;6.590;2023-01-31T11:05:17;7.00;99.90
74171;DHT22;62526;50.948;6.590;2023-01-31T11:07:42;7.00;99.90
74171;DHT22;62526;50.948;6.590;2023-01-31T11:10:20;7.00;99.90
74171;DHT22;62526;50.948;6.590;2023-01-31T11:12:52;7.00;99.90
74171;DHT22;62526;50.948;6.590;2023-01-31T11:15:18;7.00;99.90
74171;DHT22;62526;50.948;6.590;2023-01-31T11:17:46;7.20;99.90
74171;DHT22;62526;50.948;6.590;2023-01-31T11:20:23;7.30;99.90
74171;DHT22;62526;50.948;6.590;2023-01-31T11:22:47;7.40;99.90
74171;DHT22;62526;50.948;6.590;2023-01-31T11:25:16;7.40;99.90
74171;DHT22;62526;50.948;6.590;2023-01-31T11:27:41;7.30;99.90
74171;DHT22;62526;50.948;6.590;2023-01-31T11:30:39;7.30;99.90
74171;DHT22;62526;50.948;6.590;2023-01-31T11:32:49;7.30;99.90
74171;DHT22;62526;50.948;6.590;2023-01-31T11:35:31;7.40;99.90
74171;DHT22;62526;50.948;6.590;2023-01-31T11:38:00;7.40;99.90
74171;DHT22;62526;50.948;6.590;2023-01-31T11:40:30;7.40;99.90
74171;DHT22;62526;50.948;6.590;2023-01-31T11:42:57;7.50;99.90
74171;DHT22;62526;50.948;6.590;2023-01-31T11:45:24;7.50;99.90
74171;DHT22;62526;50.948;6.590;2023-01-31T11:47:51;7.50;99.90
74171;DHT22;62526;50.948;6.590;2023-01-31T11:50:19;7.40;99.90
74171;DHT22;62526;50.948;6.590;2023-01-31T11:52:46;7.40;99.90
74171;DHT22;62526;50.948;6.590;2023-01-31T11:55:15;7.40;99.90
74171;DHT22;62526;50.948;6.590;2023-01-31T11:57:41;7.30;99.90
74171;DHT22;62526;50.948;6.590;2023-01-31T12:00:18;7.40;99.90
74171;DHT22;62526;50.948;6.590;2023-01-31T12:02:37;7.50;99.90
74171;DHT22;62526;50.948;6.590;2023-01-31T12:05:08;7.40;99.90
74171;DHT22;62526;50.948;6.590;2023-01-31T12:07:47;7.30;99.90
74171;DHT22;62526;50.948;6.590;2023-01-31T12:10:42;7.40;99.90
74171;DHT22;62526;50.948;6.590;2023-01-31T12:13:13;7.40;99.90
74171;DHT22;62526;50.948;6.590;2023-01-31T12:15:44;7.40;99.90
74171;DHT22;62526;50.948;6.590;2023-01-31T12:18:07;7.30;99.90
74171;DHT22;62526;50.948;6.590;2023-01-31T12:20:41;7.40;99.90
74171;DHT22;62526;50.948;6.590;2023-01-31T12:23:11;7.30;99.90
74171;DHT22;62526;50.948;6.590;2023-01-31T12:28:38;7.40;99.90
74171;DHT22;62526;50.948;6.590;2023-01-31T12:31:07;7.60;99.90
74171;DHT22;62526;50.948;6.590;2023-01-31T12:41:39;7.40;99.90
74171;DHT22;62526;50.948;6.590;2023-01-31T12:46:51;7.40;99.90
74171;DHT22;62526;50.948;6.590;2023-01-31T12:49:24;7.40;99.90
74171;DHT22;62526;50.948;6.590;2023-01-31T12:51:57;7.60;99.90
74171;DHT22;62526;50.948;6.590;2023-01-31T12:57:20;7.50;99.90
74171;DHT22;62526;50.948;6.590;2023-01-31T12:59:48;7.40;99.90
74171;DHT22;62526;50.948;6.590;2023-01-31T13:02:17;7.40;99.90
74171;DHT22;62526;50.948;6.590;2023-01-31T13:04:47;7.30;99.90
74171;DHT22;62526;50.948;6.590;2023-01-31T13:07:19;7.40;99.90
74171;DHT22;62526;50.948;6.590;2023-01-31T13:09:45;7.40;99.90
74171;DHT22;62526;50.948;6.590;2023-01-31T13:12:14;7.50;99.90
74171;DHT22;62526;50.948;6.590;2023-01-31T13:14:41;7.50;99.90
74171;DHT22;62526;50.948;6.590;2023-01-31T13:17:07;7.60;99.90
74171;DHT22;62526;50.948;6.590;2023-01-31T13:19:40;7.70;99.90
74171;DHT22;62526;50.948;6.590;2023-01-31T13:22:09;7.50;99.90
74171;DHT22;62526;50.948;6.590;2023-01-31T13:24:34;7.50;99.90
74171;DHT22;62526;50.948;6.590;2023-01-31T13:27:18;7.60;99.90
74171;DHT22;62526;50.948;6.590;2023-01-31T13:29:47;7.70;99.90
74171;DHT22;62526;50.948;6.590;2023-01-31T13:32:23;7.80;99.90
74171;DHT22;62526;50.948;6.590;2023-01-31T13:34:53;7.70;99.90
74171;DHT22;62526;50.948;6.590;2023-01-31T13:37:19;7.70;99.90
74171;DHT22;62526;50.948;6.590;2023-01-31T13:39:48;7.60;99.90
74171;DHT22;62526;50.948;6.590;2023-01-31T13:42:14;7.60;99.90
74171;DHT22;62526;50.948;6.590;2023-01-31T13:44:41;7.70;99.90
74171;DHT22;62526;50.948;6.590;2023-01-31T13:47:14;7.60;99.90
74171;DHT22;62526;50.948;6.590;2023-01-31T13:50:00;7.60;99.90
74171;DHT22;62526;50.948;6.590;2023-01-31T13:52:34;7.60;99.90
74171;DHT22;62526;50.948;6.590;2023-01-31T13:55:05;7.50;99.90
74171;DHT22;62526;50.948;6.590;2023-01-31T13:57:31;7.40;99.90
74171;DHT22;62526;50.948;6.590;2023-01-31T14:00:03;7.30;99.90
74171;DHT22;62526;50.948;6.590;2023-01-31T14:02:25;7.20;99.90
74171;DHT22;62526;50.948;6.590;2023-01-31T14:04:52;7.20;99.90
74171;DHT22;62526;50.948;6.590;2023-01-31T14:07:19;7.20;99.90
74171;DHT22;62526;50.948;6.590;2023-01-31T14:12:45;7.20;99.90
74171;DHT22;62526;50.948;6.590;2023-01-31T14:18:02;7.20;99.90
74171;DHT22;62526;50.948;6.590;2023-01-31T14:20:29;7.20;99.90
74171;DHT22;62526;50.948;6.590;2023-01-31T14:25:48;7.20;99.90
74171;DHT22;62526;50.948;6.590;2023-01-31T14:28:15;7.10;99.90
74171;DHT22;62526;50.948;6.590;2023-01-31T14:30:42;7.20;99.90
74171;DHT22;62526;50.948;6.590;2023-01-31T14:33:24;7.20;99.90
74171;DHT22;62526;50.948;6.590;2023-01-31T14:36:01;7.30;99.90
74171;DHT22;62526;50.948;6.590;2023-01-31T14:38:30;7.20;99.90
74171;DHT22;62526;50.948;6.590;2023-01-31T14:41:32;7.30;99.90
74171;DHT22;62526;50.948;6.590;2023-01-31T14:46:27;7.30;99.90
74171;DHT22;62526;50.948;6.590;2023-01-31T14:49:32;7.40;99.90
74171;DHT22;62526;50.948;6.590;2023-01-31T14:54:39;7.30;99.90
74171;DHT22;62526;50.948;6.590;2023-01-31T14:57:10;7.40;99.90
74171;DHT22;62526;50.948;6.590;2023-01-31T14:59:39;7.30;99.90
74171;DHT22;62526;50.948;6.590;2023-01-31T15:02:16;7.30;99.90
74171;DHT22;62526;50.948;6.590;2023-01-31T15:04:28;7.40;99.90
74171;DHT22;62526;50.948;6.590;2023-01-31T15:06:55;7.30;99.90
74171;DHT22;62526;50.948;6.590;2023-01-31T15:09:35;7.30;99.90
74171;DHT22;62526;50.948;6.590;2023-01-31T15:12:01;7.30;99.90
74171;DHT22;62526;50.948;6.590;2023-01-31T15:14:33;7.30;99.90
74171;DHT22;62526;50.948;6.590;2023-01-31T15:17:00;7.30;99.90
74171;DHT22;62526;50.948;6.590;2023-01-31T15:19:25;7.30;99.90
74171;DHT22;62526;50.948;6.590;2023-01-31T15:21:55;7.20;99.90
74171;DHT22;62526;50.948;6.590;2023-01-31T15:24:23;7.30;99.90
74171;DHT22;62526;50.948;6.590;2023-01-31T15:26:48;7.20;99.90
74171;DHT22;62526;50.948;6.590;2023-01-31T15:29:18;7.20;99.90
74171;DHT22;62526;50.948;6.590;2023-01-31T15:31:45;7.20;99.90
74171;DHT22;62526;50.948;6.590;2023-01-31T15:34:14;7.20;99.90
74171;DHT22;62526;50.948;6.590;2023-01-31T15:36:50;7.20;99.90
74171;DHT22;62526;50.948;6.590;2023-01-31T15:39:19;7.30;99.90
74171;DHT22;62526;50.948;6.590;2023-01-31T15:41:44;7.20;99.90
74171;DHT22;62526;50.948;6.590;2023-01-31T15:44:18;7.20;99.90
74171;DHT22;62526;50.948;6.590;2023-01-31T15:46:44;7.20;99.90
74171;DHT22;62526;50.948;6.590;2023-01-31T15:52:19;7.30;99.90
74171;DHT22;62526;50.948;6.590;2023-01-31T15:54:29;7.30;99.90
74171;DHT22;62526;50.948;6.590;2023-01-31T15:56:55;7.30;99.90
74171;DHT22;62526;50.948;6.590;2023-01-31T15:59:22;7.30;99.90
74171;DHT22;62526;50.948;6.590;2023-01-31T16:01:56;7.20;99.90
74171;DHT22;62526;50.948;6.590;2023-01-31T16:04:21;7.20;99.90
74171;DHT22;62526;50.948;6.590;2023-01-31T16:06:49;7.20;99.90
74171;DHT22;62526;50.948;6.590;2023-01-31T16:09:22;7.20;99.90
74171;DHT22;62526;50.948;6.590;2023-01-31T16:11:49;7.20;99.90
74171;DHT22;62526;50.948;6.590;2023-01-31T16:14:15;7.20;99.90
74171;DHT22;62526;50.948;6.590;2023-01-31T16:16:42;7.30;99.90
74171;DHT22;62526;50.948;6.590;2023-01-31T16:19:12;7.20;99.90
74171;DHT22;62526;50.948;6.590;2023-01-31T16:21:40;7.20;99.90
74171;DHT22;62526;50.948;6.590;2023-01-31T16:24:14;7.20;99.90
74171;DHT22;62526;50.948;6.590;2023-01-31T16:26:52;7.20;99.90
74171;DHT22;62526;50.948;6.590;2023-01-31T16:29:18;7.20;99.90
74171;DHT22;62526;50.948;6.590;2023-01-31T16:31:48;7.20;99.90
74171;DHT22;62526;50.948;6.590;2023-01-31T16:34:24;7.20;99.90
74171;DHT22;62526;50.948;6.590;2023-01-31T16:36:51;7.20;99.90
74171;DHT22;62526;50.948;6.590;2023-01-31T16:39:36;7.20;99.90
74171;DHT22;62526;50.948;6.590;2023-01-31T16:42:05;7.30;99.90
74171;DHT22;62526;50.948;6.590;2023-01-31T16:44:32;7.20;99.90